Time,TemperatureF,DewpointF,PressureIn,WindDirection,WindDirectionDegrees,WindSpeedMPH,WindSpeedGustMPH,Humidity,HourlyPrecipIn,Conditions,Clouds,dailyrainin,SolarRadiationWatts/m^2,SoftwareType,DateUTC
2013-04-30 00:03:00,72.6,68.8,29.96,SSE,168,0.0,0.0,88,0.00,,---,0.00,0.00,VWS V14.01,2013-04-30 04:03:00,
2013-04-30 00:33:00,72.3,68.9,29.95,SSE,168,0.0,0.0,89,0.00,,---,0.00,0.00,VWS V14.01,2013-04-30 04:33:00,
2013-04-30 01:03:00,72.1,69.0,29.96,SSE,168,0.0,0.0,90,0.00,,---,0.00,0.00,VWS V14.01,2013-04-30 05:03:00,
2013-04-30 01:33:00,71.7,68.6,29.94,SSE,168,0.0,0.0,90,0.00,,---,0.00,0.00,VWS V14.01,2013-04-30 05:33:00,
2013-04-30 02:03:00,71.1,68.3,29.93,SSE,168,0.0,0.0,91,0.00,,---,0.00,0.00,VWS V14.01,2013-04-30 06:03:00,
2013-04-30 02:33:00,70.5,68.1,29.93,SSE,168,0.0,0.0,92,0.00,,---,0.00,0.00,VWS V14.01,2013-04-30 06:33:00,
2013-04-30 03:03:00,70.2,68.1,29.93,SSE,168,0.0,0.0,93,0.00,,---,0.00,0.00,VWS V14.01,2013-04-30 07:03:00,
2013-04-30 03:33:00,69.9,67.8,29.93,SSE,168,0.0,0.0,93,0.00,,---,0.00,0.00,VWS V14.01,2013-04-30 07:33:00,
2013-04-30 04:03:00,69.6,67.8,29.93,SSE,168,0.0,0.0,94,0.00,,---,0.00,0.00,VWS V14.01,2013-04-30 08:03:00,
2013-04-30 04:33:00,69.4,67.6,29.92,SSE,168,0.0,0.0,94,0.00,,---,0.00,0.00,VWS V14.01,2013-04-30 08:33:00,
2013-04-30 05:03:00,69.5,68.0,29.93,SSE,168,0.0,0.0,95,0.00,,---,0.00,0.00,VWS V14.01,2013-04-30 09:03:00,
2013-04-30 05:33:00,69.5,68.0,29.93,SSE,168,0.0,0.0,95,0.00,,---,0.00,0.00,VWS V14.01,2013-04-30 09:33:00,
2013-04-30 06:03:00,69.1,67.6,29.93,SSE,168,0.0,0.0,95,0.00,,---,0.00,0.00,VWS V14.01,2013-04-30 10:03:00,
2013-04-30 06:33:00,68.6,67.1,29.94,SSE,168,0.0,0.0,95,0.00,,---,0.00,0.00,VWS V14.01,2013-04-30 10:33:00,
2013-04-30 07:03:00,68.7,67.5,29.96,SSE,168,0.0,0.0,96,0.00,,---,0.00,11.00,VWS V14.01,2013-04-30 11:03:00,
2013-04-30 07:33:00,69.0,67.8,29.97,SSE,168,0.0,0.0,96,0.00,,---,0.00,28.00,VWS V14.01,2013-04-30 11:33:00,
2013-04-30 08:03:00,69.9,69.0,29.97,SSE,168,0.0,0.0,97,0.00,,---,0.00,176.00,VWS V14.01,2013-04-30 12:03:00,
2013-04-30 08:33:00,71.9,71.0,29.98,SSE,168,0.0,0.0,97,0.00,,---,0.00,302.00,VWS V14.01,2013-04-30 12:33:00,
2013-04-30 09:03:00,74.6,73.4,29.99,South,169,0.0,2.0,96,0.00,,---,0.00,480.00,VWS V14.01,2013-04-30 13:03:00,
2013-04-30 09:33:00,77.5,73.7,29.99,SSW,205,0.0,1.0,88,0.00,,---,0.00,503.00,VWS V14.01,2013-04-30 13:33:00,
2013-04-30 19:00:00,75.3,71.8,29.94,SSE,158,0.0,0.0,89,0.01,,---,0.04,42.00,VWS V14.01,2013-04-30 23:00:00,
2013-04-30 20:03:00,74.1,70.7,29.95,East,84,0.0,0.0,89,0.01,,---,0.04,0.00,VWS V14.01,2013-05-01 00:03:00,
2013-04-30 20:33:00,73.4,70.9,29.96,ESE,107,0.0,0.0,92,0.00,,---,0.04,0.00,VWS V14.01,2013-05-01 00:33:00,
2013-04-30 21:03:00,72.6,70.2,29.96,ESE,107,0.0,0.0,92,0.00,,---,0.04,0.00,VWS V14.01,2013-05-01 01:03:00,
2013-04-30 21:33:00,71.9,69.4,29.98,ESE,107,0.0,0.0,92,0.00,,---,0.04,0.00,VWS V14.01,2013-05-01 01:33:00,
2013-04-30 22:03:00,71.2,69.1,29.99,ESE,107,0.0,0.0,93,0.00,,---,0.04,0.00,VWS V14.01,2013-05-01 02:03:00,
2013-04-30 22:33:00,70.9,69.1,29.99,ESE,107,0.0,0.0,94,0.00,,---,0.04,0.00,VWS V14.01,2013-05-01 02:33:00,
2013-04-30 23:03:00,70.6,68.8,29.99,ESE,107,0.0,0.0,94,0.00,,---,0.04,0.00,VWS V14.01,2013-05-01 03:03:00,
2013-04-30 23:33:00,70.0,68.2,29.99,ESE,107,0.0,0.0,94,0.01,,---,0.05,0.00,VWS V14.01,2013-05-01 03:33:00,